createdAt,value
2023-12-22T00:00:42.466Z,11.30
2023-12-22T00:01:42.478Z,14.90
2023-12-22T00:02:42.516Z,11.70
2023-12-22T00:03:42.475Z,11.40
2023-12-22T00:04:42.441Z,11.50
2023-12-22T00:05:42.446Z,14.60
2023-12-22T00:06:42.419Z,15.90
2023-12-22T00:07:42.411Z,14.10
2023-12-22T00:08:42.372Z,17.70
2023-12-22T00:09:43.498Z,16.10
2023-12-22T00:10:43.511Z,13.90
2023-12-22T00:11:43.508Z,15.60
2023-12-22T00:12:43.462Z,14.20
2023-12-22T00:13:43.546Z,16.50
2023-12-22T00:14:43.488Z,13.80
2023-12-22T00:15:43.521Z,13.40
2023-12-22T00:16:43.510Z,20.30
2023-12-22T00:17:43.439Z,15.70
2023-12-22T00:18:43.530Z,12.70
2023-12-22T00:19:43.584Z,18.60
2023-12-22T00:20:43.411Z,17.90
2023-12-22T00:21:43.395Z,13.60
2023-12-22T00:22:43.450Z,19.30
2023-12-22T00:23:43.387Z,17.80
2023-12-22T00:24:43.367Z,14.70
2023-12-22T00:25:43.386Z,12.80
2023-12-22T00:26:43.376Z,20.00
2023-12-22T00:27:43.367Z,15.00
2023-12-22T00:28:43.379Z,15.70
2023-12-22T00:29:43.347Z,16.50
2023-12-22T00:30:43.344Z,14.40
2023-12-22T00:31:43.380Z,18.80
2023-12-22T00:32:43.354Z,19.40
2023-12-22T00:33:43.364Z,14.40
2023-12-22T00:34:43.336Z,15.40
2023-12-22T00:35:43.276Z,13.30
2023-12-22T00:36:43.254Z,15.40
2023-12-22T00:37:43.273Z,15.10
2023-12-22T00:38:43.280Z,16.00
2023-12-22T00:39:43.242Z,15.70
2023-12-22T00:40:43.290Z,10.90
2023-12-22T00:41:43.215Z,16.50
2023-12-22T00:42:43.228Z,14.20
2023-12-22T00:43:43.226Z,15.10
2023-12-22T00:44:43.208Z,15.20
2023-12-22T00:45:43.179Z,17.10
2023-12-22T00:46:43.164Z,12.80
2023-12-22T00:47:43.203Z,17.20
2023-12-22T00:48:43.173Z,14.00
2023-12-22T00:49:43.151Z,13.90
2023-12-22T00:50:43.115Z,16.20
2023-12-22T00:51:43.122Z,14.60
2023-12-22T00:52:43.125Z,15.00
2023-12-22T00:53:43.095Z,15.40
2023-12-22T00:54:43.077Z,14.00
2023-12-22T00:55:43.122Z,14.60
2023-12-22T00:56:43.092Z,15.60
2023-12-22T00:57:43.088Z,15.70
2023-12-22T00:58:45.830Z,18.40
2023-12-22T00:59:43.072Z,15.00
2023-12-22T01:00:43.091Z,14.40
2023-12-22T01:01:43.140Z,18.30
2023-12-22T01:02:43.140Z,15.80
2023-12-22T01:03:43.104Z,14.70
2023-12-22T01:04:43.262Z,16.70
2023-12-22T01:05:44.090Z,16.90
2023-12-22T01:06:43.173Z,12.80
2023-12-22T01:07:43.031Z,11.10
2023-12-22T01:08:42.954Z,15.60
2023-12-22T01:09:42.964Z,13.80
2023-12-22T01:10:43.117Z,12.80
2023-12-22T01:11:42.999Z,19.10
2023-12-22T01:12:43.020Z,18.80
2023-12-22T01:13:42.973Z,15.80
2023-12-22T01:14:42.965Z,11.70
2023-12-22T01:15:42.959Z,10.50
2023-12-22T01:16:42.991Z,13.80
2023-12-22T01:17:43.023Z,11.20
2023-12-22T01:18:43.025Z,14.70
2023-12-22T01:19:42.975Z,11.50
2023-12-22T01:20:42.873Z,12.50
2023-12-22T01:21:42.851Z,11.50
2023-12-22T01:22:42.894Z,10.80
2023-12-22T01:23:42.859Z,14.20
2023-12-22T01:24:42.806Z,12.60
2023-12-22T01:25:42.815Z,10.00
2023-12-22T01:26:42.819Z,11.60
2023-12-22T01:27:42.801Z,8.40
2023-12-22T01:28:42.825Z,10.30
2023-12-22T01:29:42.822Z,12.80
2023-12-22T01:30:42.804Z,19.20
2023-12-22T01:31:42.825Z,15.30
2023-12-22T01:32:42.762Z,15.30
2023-12-22T01:33:42.782Z,12.60
2023-12-22T01:34:42.791Z,15.70
2023-12-22T01:35:42.682Z,12.50
2023-12-22T01:36:43.678Z,11.10
2023-12-22T01:37:42.701Z,10.20
2023-12-22T01:38:42.700Z,13.80
2023-12-22T01:39:42.676Z,14.20
2023-12-22T01:40:45.429Z,7.50
2023-12-22T01:41:52.226Z,9.40
2023-12-22T01:42:44.879Z,11.50
2023-12-22T01:44:06.896Z,13.10
2023-12-22T01:47:13.129Z,11.90
2023-12-22T01:47:48.742Z,9.70
2023-12-22T01:48:28.601Z,14.20
2023-12-22T01:49:48.549Z,12.50
2023-12-22T01:50:15.717Z,10.70
2023-12-22T01:51:27.465Z,10.80
2023-12-22T01:52:31.996Z,12.90
2023-12-22T01:53:16.983Z,11.40
2023-12-22T01:54:15.952Z,13.00
2023-12-22T01:55:32.270Z,9.60
2023-12-22T01:56:28.966Z,12.00
2023-12-22T01:57:31.265Z,10.70
2023-12-22T01:58:16.983Z,8.90
2023-12-22T01:59:30.301Z,9.10
2023-12-22T02:00:23.384Z,9.50
2023-12-22T02:03:29.983Z,12.80
2023-12-22T02:04:59.503Z,7.90
2023-12-22T02:05:32.166Z,12.00
2023-12-22T02:06:25.994Z,7.40
2023-12-22T02:09:17.535Z,10.50
2023-12-22T02:09:44.448Z,8.10
2023-12-22T02:10:22.703Z,7.70
2023-12-22T02:11:29.999Z,9.60
2023-12-22T02:12:31.230Z,9.80
2023-12-22T02:13:23.605Z,6.80
2023-12-22T02:14:23.431Z,10.40
2023-12-22T02:15:19.132Z,9.70
2023-12-22T02:16:34.530Z,8.80
2023-12-22T02:17:24.503Z,9.00
2023-12-22T02:18:19.199Z,8.60
2023-12-22T02:19:22.683Z,8.50
2023-12-22T02:21:36.517Z,7.90
2023-12-22T02:22:36.581Z,12.70
2023-12-22T02:23:36.514Z,10.40
2023-12-22T02:24:36.500Z,8.40
2023-12-22T02:25:36.523Z,10.20
2023-12-22T02:26:36.487Z,10.30
2023-12-22T02:27:36.464Z,8.20
2023-12-22T02:28:36.455Z,6.90
2023-12-22T02:29:36.549Z,9.20
2023-12-22T02:30:36.474Z,6.80
2023-12-22T02:31:36.460Z,11.20
2023-12-22T02:32:36.703Z,11.60
2023-12-22T02:33:37.076Z,9.60
2023-12-22T02:34:36.503Z,10.60
2023-12-22T02:35:36.443Z,10.10
2023-12-22T02:36:36.437Z,6.30
2023-12-22T02:37:36.533Z,9.10
2023-12-22T02:38:36.366Z,7.70
2023-12-22T02:39:37.070Z,8.20
2023-12-22T02:40:36.674Z,8.00
2023-12-22T02:41:36.370Z,8.00
2023-12-22T02:42:36.381Z,10.00
2023-12-22T02:43:36.360Z,8.50
2023-12-22T02:44:37.083Z,5.30
2023-12-22T02:45:36.346Z,9.30
2023-12-22T02:46:36.330Z,8.90
2023-12-22T02:47:36.284Z,7.90
2023-12-22T02:48:36.312Z,11.20
2023-12-22T02:49:36.365Z,8.40
2023-12-22T02:50:36.279Z,7.10
2023-12-22T02:51:36.282Z,8.50
2023-12-22T02:52:36.334Z,8.60
2023-12-22T02:53:36.208Z,9.20
2023-12-22T02:54:36.248Z,15.50
2023-12-22T02:55:36.335Z,7.60
2023-12-22T02:56:37.074Z,7.50
2023-12-22T02:57:36.166Z,10.20
2023-12-22T02:58:36.211Z,9.50
2023-12-22T02:59:37.160Z,9.20
2023-12-22T03:00:36.194Z,9.40
2023-12-22T03:01:37.123Z,11.20
2023-12-22T03:02:36.208Z,8.00
2023-12-22T03:03:36.160Z,8.60
2023-12-22T03:04:36.193Z,7.80
2023-12-22T03:05:36.221Z,7.70
2023-12-22T03:06:36.208Z,9.20
2023-12-22T03:07:36.149Z,9.60
2023-12-22T03:08:36.074Z,6.50
2023-12-22T03:09:38.498Z,8.70
2023-12-22T03:10:36.151Z,6.60
2023-12-22T03:11:36.017Z,6.60
2023-12-22T03:12:36.068Z,14.10
2023-12-22T03:13:36.005Z,8.90
2023-12-22T03:14:35.964Z,7.10
2023-12-22T03:15:35.967Z,9.10
2023-12-22T03:16:35.994Z,10.50
2023-12-22T03:17:35.975Z,9.00
2023-12-22T03:18:35.985Z,8.00
2023-12-22T03:19:35.965Z,9.70
2023-12-22T03:20:35.918Z,7.90
2023-12-22T03:21:35.931Z,7.70
2023-12-22T03:22:35.929Z,10.40
2023-12-22T03:23:35.879Z,10.90
2023-12-22T03:24:35.859Z,7.20
2023-12-22T03:25:35.923Z,8.30
2023-12-22T03:26:35.873Z,9.60
2023-12-22T03:27:35.844Z,8.90
2023-12-22T03:28:35.836Z,12.20
2023-12-22T03:29:35.823Z,6.90
2023-12-22T03:30:35.822Z,6.10
2023-12-22T03:31:35.842Z,6.40
2023-12-22T03:32:35.797Z,9.20
2023-12-22T03:33:35.806Z,7.40
2023-12-22T03:34:35.779Z,10.00
2023-12-22T03:35:35.753Z,9.80
2023-12-22T03:36:35.749Z,8.50
2023-12-22T03:37:35.749Z,6.90
2023-12-22T03:38:35.711Z,8.40
2023-12-22T03:39:35.706Z,9.50
2023-12-22T03:40:35.737Z,9.70
2023-12-22T03:41:35.709Z,7.70
2023-12-22T03:42:35.665Z,8.90
2023-12-22T03:43:35.714Z,6.90
2023-12-22T03:44:35.652Z,13.80
2023-12-22T03:45:35.657Z,10.50
2023-12-22T03:46:35.679Z,11.50
2023-12-22T03:47:35.730Z,9.70
2023-12-22T03:48:35.694Z,12.30
2023-12-22T03:49:35.625Z,8.70
2023-12-22T03:50:35.603Z,8.30
2023-12-22T03:51:35.602Z,10.20
2023-12-22T03:52:35.642Z,7.40
2023-12-22T03:53:35.573Z,10.60
2023-12-22T03:54:35.551Z,11.70
2023-12-22T03:55:35.624Z,9.10
2023-12-22T03:56:35.519Z,8.40
2023-12-22T03:57:35.521Z,9.80
2023-12-22T03:58:35.557Z,9.50
2023-12-22T03:59:35.501Z,7.20
2023-12-22T04:00:35.492Z,7.90
2023-12-22T04:01:35.499Z,12.00
2023-12-22T04:02:35.531Z,7.70
2023-12-22T04:03:35.554Z,8.20
2023-12-22T04:04:35.461Z,7.00
2023-12-22T04:05:35.462Z,9.70
2023-12-22T04:06:35.421Z,9.70
2023-12-22T04:07:35.451Z,9.50
2023-12-22T04:08:35.401Z,7.90
2023-12-22T04:09:35.397Z,9.80
2023-12-22T04:10:35.511Z,6.50
2023-12-22T04:11:38.166Z,8.80
2023-12-22T04:12:35.368Z,10.10
2023-12-22T04:13:35.385Z,8.80
2023-12-22T04:14:35.344Z,7.10
2023-12-22T04:15:35.326Z,6.00
2023-12-22T04:16:35.329Z,5.90
2023-12-22T04:17:35.301Z,10.80
2023-12-22T04:18:35.387Z,9.10
2023-12-22T04:19:35.439Z,9.20
2023-12-22T04:20:35.376Z,11.00
2023-12-22T04:21:35.270Z,10.90
2023-12-22T04:22:35.365Z,10.40
2023-12-22T04:23:35.250Z,7.70
2023-12-22T04:24:35.218Z,7.60
2023-12-22T04:25:35.267Z,9.30
2023-12-22T04:26:35.212Z,8.90
2023-12-22T04:27:35.209Z,12.00
2023-12-22T04:28:35.233Z,8.40
2023-12-22T04:29:35.174Z,7.20
2023-12-22T04:30:35.182Z,11.70
2023-12-22T04:31:35.619Z,8.50
2023-12-22T04:32:35.212Z,9.20
2023-12-22T04:33:35.213Z,7.40
2023-12-22T04:34:35.150Z,14.70
2023-12-22T04:35:35.109Z,7.20
2023-12-22T04:36:35.100Z,11.60
2023-12-22T04:37:37.632Z,10.70
2023-12-22T04:38:35.085Z,7.40
2023-12-22T04:39:35.081Z,6.60
2023-12-22T04:40:35.085Z,9.50
2023-12-22T04:41:35.056Z,8.70
2023-12-22T04:42:35.044Z,10.00
2023-12-22T04:43:35.056Z,9.20
2023-12-22T04:44:35.018Z,12.90
2023-12-22T04:45:35.007Z,10.80
2023-12-22T04:46:35.045Z,4.60
2023-12-22T04:47:35.095Z,11.20
2023-12-22T04:48:35.053Z,8.60
2023-12-22T04:49:35.041Z,11.50
2023-12-22T04:50:34.952Z,8.50
2023-12-22T04:51:34.965Z,7.70
2023-12-22T04:52:35.002Z,7.00
2023-12-22T04:53:35.061Z,10.00
2023-12-22T04:54:34.930Z,5.90
2023-12-22T04:55:34.960Z,9.20
2023-12-22T04:56:34.919Z,12.10
2023-12-22T04:57:34.890Z,8.20
2023-12-22T04:58:34.896Z,6.20
2023-12-22T04:59:34.876Z,5.40
2023-12-22T05:00:34.903Z,8.10
2023-12-22T05:01:34.874Z,6.40
2023-12-22T05:02:34.827Z,7.60
2023-12-22T05:03:34.874Z,8.30
2023-12-22T05:04:34.868Z,8.50
2023-12-22T05:05:34.853Z,9.00
2023-12-22T05:06:34.813Z,6.40
2023-12-22T05:07:34.837Z,7.90
2023-12-22T05:08:34.771Z,8.50
2023-12-22T05:09:34.768Z,11.80
2023-12-22T05:10:34.786Z,7.10
2023-12-22T05:11:34.749Z,7.30
2023-12-22T05:12:34.766Z,9.00
2023-12-22T05:13:34.729Z,8.40
2023-12-22T05:14:34.718Z,8.80
2023-12-22T05:15:34.711Z,5.70
2023-12-22T05:16:34.761Z,7.10
2023-12-22T05:17:34.763Z,8.80
2023-12-22T05:18:34.764Z,10.10
2023-12-22T05:19:34.729Z,7.40
2023-12-22T05:20:34.664Z,8.20
2023-12-22T05:21:34.636Z,8.40
2023-12-22T05:22:37.031Z,6.30
2023-12-22T05:23:34.663Z,7.90
2023-12-22T05:24:34.612Z,7.90
2023-12-22T05:25:34.634Z,5.90
2023-12-22T05:26:34.581Z,7.60
2023-12-22T05:27:34.574Z,8.40
2023-12-22T05:28:34.571Z,7.50
2023-12-22T05:29:34.590Z,7.50
2023-12-22T05:30:34.530Z,5.50
2023-12-22T05:31:34.555Z,6.80
2023-12-22T05:32:34.544Z,7.00
2023-12-22T05:33:34.501Z,4.90
2023-12-22T05:34:34.594Z,4.40
2023-12-22T05:35:36.330Z,5.00
2023-12-22T05:36:34.467Z,4.30
2023-12-22T05:37:34.488Z,5.90
2023-12-22T05:38:34.450Z,5.00
2023-12-22T05:39:34.460Z,4.80
2023-12-22T05:40:34.450Z,5.80
2023-12-22T05:41:34.415Z,7.90
2023-12-22T05:42:34.412Z,4.60
2023-12-22T05:43:34.507Z,8.60
2023-12-22T05:44:34.396Z,5.20
2023-12-22T05:45:34.373Z,5.30
2023-12-22T05:46:34.429Z,4.30
2023-12-22T05:47:34.490Z,3.90
2023-12-22T05:48:34.458Z,6.70
2023-12-22T05:49:34.605Z,7.00
2023-12-22T05:50:34.384Z,4.00
2023-12-22T05:51:34.317Z,5.80
2023-12-22T05:52:34.432Z,2.30
2023-12-22T05:53:34.305Z,4.00
2023-12-22T05:54:34.286Z,5.10
2023-12-22T05:55:34.307Z,6.40
2023-12-22T05:56:34.266Z,5.10
2023-12-22T05:57:34.266Z,4.40
2023-12-22T05:58:34.305Z,4.00
2023-12-22T05:59:34.226Z,5.20
2023-12-22T06:00:34.235Z,6.20
2023-12-22T06:01:34.276Z,4.90
2023-12-22T06:02:34.210Z,7.60
2023-12-22T06:03:34.174Z,6.70
2023-12-22T06:04:34.251Z,5.40
2023-12-22T06:05:34.274Z,4.10
2023-12-22T06:06:34.224Z,3.40
2023-12-22T06:07:34.197Z,4.80
2023-12-22T06:08:34.134Z,7.30
2023-12-22T06:09:34.116Z,4.50
2023-12-22T06:10:34.183Z,4.40
2023-12-22T06:11:34.104Z,4.80
2023-12-22T06:12:34.088Z,7.10
2023-12-22T06:13:34.145Z,5.40
2023-12-22T06:14:34.083Z,6.20
2023-12-22T06:15:34.058Z,5.40
2023-12-22T06:16:34.102Z,5.50
2023-12-22T06:17:34.037Z,4.40
2023-12-22T06:18:34.093Z,4.10
2023-12-22T06:19:34.065Z,5.30
2023-12-22T06:20:34.013Z,6.30
2023-12-22T06:21:34.012Z,4.40
2023-12-22T06:22:34.002Z,5.30
2023-12-22T06:23:34.661Z,4.50
2023-12-22T06:24:33.986Z,4.10
2023-12-22T06:25:33.972Z,5.00
2023-12-22T06:26:33.949Z,6.20
2023-12-22T06:27:33.924Z,3.70
2023-12-22T06:28:33.991Z,4.30
2023-12-22T06:29:33.906Z,5.10
2023-12-22T06:30:33.908Z,4.70
2023-12-22T06:31:33.972Z,4.30
2023-12-22T06:32:33.961Z,4.00
2023-12-22T06:33:33.979Z,4.50
2023-12-22T06:34:33.865Z,1.80
2023-12-22T06:35:33.869Z,3.00
2023-12-22T06:36:33.882Z,3.50
2023-12-22T06:37:33.838Z,5.20
2023-12-22T06:38:33.812Z,5.80
2023-12-22T06:39:33.812Z,2.60
2023-12-22T06:40:33.800Z,4.50
2023-12-22T06:41:34.063Z,5.30
2023-12-22T06:42:33.761Z,2.20
2023-12-22T06:43:33.781Z,3.20
2023-12-22T06:44:33.759Z,1.90
2023-12-22T06:45:33.730Z,3.40
2023-12-22T06:46:33.852Z,3.80
2023-12-22T06:47:33.876Z,2.80
2023-12-22T06:48:33.824Z,3.10
2023-12-22T06:49:33.865Z,4.50
2023-12-22T06:50:33.723Z,3.90
2023-12-22T06:51:33.671Z,2.00
2023-12-22T06:52:33.716Z,3.10
2023-12-22T06:53:33.677Z,4.80
2023-12-22T06:54:33.670Z,3.40
2023-12-22T06:55:33.658Z,4.80
2023-12-22T06:56:33.639Z,5.20
2023-12-22T06:57:35.318Z,2.10
2023-12-22T06:58:33.668Z,5.00
2023-12-22T06:59:34.382Z,4.20
2023-12-22T07:00:33.628Z,3.70
2023-12-22T07:01:33.701Z,4.00
2023-12-22T07:02:35.366Z,2.40
2023-12-22T07:03:33.609Z,5.40
2023-12-22T07:04:33.590Z,3.50
2023-12-22T07:05:33.552Z,2.30
2023-12-22T07:06:33.521Z,4.60
2023-12-22T07:07:35.832Z,3.70
2023-12-22T07:08:33.515Z,3.00
2023-12-22T07:09:33.494Z,4.90
2023-12-22T07:10:33.524Z,4.10
2023-12-22T07:11:37.941Z,3.30
2023-12-22T07:12:33.648Z,3.90
2023-12-22T07:13:33.469Z,3.50
2023-12-22T07:14:34.810Z,4.00
2023-12-22T07:15:33.421Z,3.60
2023-12-22T07:16:33.434Z,4.70
2023-12-22T07:17:33.498Z,3.80
2023-12-22T07:18:33.498Z,2.70
2023-12-22T07:19:33.376Z,2.40
2023-12-22T07:20:33.376Z,4.00
2023-12-22T07:21:33.359Z,4.10
2023-12-22T07:22:33.384Z,3.60
2023-12-22T07:23:33.348Z,3.80
2023-12-22T07:24:33.332Z,1.50
2023-12-22T07:25:33.347Z,3.50
2023-12-22T07:26:33.308Z,3.00
2023-12-22T07:27:33.313Z,3.70
2023-12-22T07:28:34.065Z,2.50
2023-12-22T07:29:33.277Z,4.70
2023-12-22T07:30:33.405Z,4.50
2023-12-22T07:31:33.278Z,3.60
2023-12-22T07:32:33.290Z,3.90
2023-12-22T07:33:33.251Z,3.50
2023-12-22T07:34:36.020Z,2.10
2023-12-22T07:35:33.269Z,5.30
2023-12-22T07:36:33.216Z,3.10
2023-12-22T07:37:33.211Z,3.00
2023-12-22T07:38:33.181Z,3.50
2023-12-22T07:39:33.169Z,2.80
2023-12-22T07:40:33.185Z,2.80
2023-12-22T07:41:33.180Z,6.10
2023-12-22T07:42:33.138Z,3.50
2023-12-22T07:43:34.052Z,2.80
2023-12-22T07:44:34.015Z,4.00
2023-12-22T07:45:33.130Z,3.60
2023-12-22T07:46:33.143Z,3.30
2023-12-22T07:47:34.062Z,5.80
2023-12-22T07:48:33.236Z,2.90
2023-12-22T07:49:33.482Z,2.70
2023-12-22T07:50:34.300Z,3.10
2023-12-22T07:51:33.071Z,5.10
2023-12-22T07:52:33.122Z,2.60
2023-12-22T07:53:33.032Z,1.90
2023-12-22T07:54:33.031Z,3.10
2023-12-22T07:55:33.058Z,1.50
2023-12-22T07:56:33.012Z,3.70
2023-12-22T07:57:32.993Z,4.60
2023-12-22T07:58:33.002Z,5.30
2023-12-22T07:59:33.064Z,3.00
2023-12-22T08:00:32.980Z,6.20
2023-12-22T08:01:32.962Z,3.40
2023-12-22T08:02:32.940Z,3.40
2023-12-22T08:03:32.948Z,4.40
2023-12-22T08:04:32.948Z,3.60
2023-12-22T08:05:32.963Z,4.70
2023-12-22T08:06:32.952Z,4.70
2023-12-22T08:07:32.893Z,2.90
2023-12-22T08:08:32.873Z,7.20
2023-12-22T08:09:32.898Z,6.40
2023-12-22T08:10:32.914Z,2.60
2023-12-22T08:11:32.835Z,5.90
2023-12-22T08:12:32.831Z,4.50
2023-12-22T08:13:32.874Z,7.80
2023-12-22T08:14:32.836Z,3.00
2023-12-22T08:15:36.537Z,5.40
2023-12-22T08:16:32.818Z,4.10
2023-12-22T08:17:32.816Z,3.40
2023-12-22T08:18:33.999Z,4.50
2023-12-22T08:19:33.185Z,4.30
2023-12-22T08:20:35.387Z,7.00
2023-12-22T08:21:39.675Z,6.40
2023-12-22T08:22:34.001Z,9.50
2023-12-22T08:23:32.802Z,5.00
2023-12-22T08:24:32.977Z,8.40
2023-12-22T08:25:32.841Z,4.70
2023-12-22T08:26:32.786Z,7.10
2023-12-22T08:27:32.695Z,6.10
2023-12-22T08:28:32.685Z,6.50
2023-12-22T08:29:33.846Z,6.40
2023-12-22T08:30:32.649Z,5.90
2023-12-22T08:32:08.292Z,5.50
2023-12-22T08:32:32.737Z,5.80
2023-12-22T08:33:32.720Z,8.60
2023-12-22T08:34:32.676Z,3.70
2023-12-22T08:35:32.604Z,6.50
2023-12-22T08:36:32.583Z,7.10
2023-12-22T08:37:32.847Z,8.50
2023-12-22T08:38:32.966Z,8.20
2023-12-22T08:39:32.702Z,5.50
2023-12-22T08:40:32.862Z,6.50
2023-12-22T08:41:32.601Z,6.80
2023-12-22T08:42:32.536Z,4.90
2023-12-22T08:43:32.533Z,7.70
2023-12-22T08:44:32.561Z,7.30
2023-12-22T08:45:32.496Z,2.80
2023-12-22T08:46:32.542Z,7.40
2023-12-22T08:47:32.495Z,5.60
2023-12-22T08:48:32.579Z,4.30
2023-12-22T08:49:32.518Z,4.70
2023-12-22T08:50:32.440Z,4.90
2023-12-22T08:51:32.448Z,4.40
2023-12-22T08:52:32.467Z,5.50
2023-12-22T08:53:32.409Z,6.60
2023-12-22T08:54:32.398Z,5.70
2023-12-22T08:55:32.472Z,9.00
2023-12-22T08:56:32.376Z,5.30
2023-12-22T08:57:32.360Z,5.10
2023-12-22T08:58:32.389Z,5.80
2023-12-22T08:59:32.343Z,6.20
2023-12-22T09:00:45.106Z,6.10
2023-12-22T09:01:32.348Z,5.80
2023-12-22T09:02:32.321Z,6.30
2023-12-22T09:03:32.302Z,6.20
2023-12-22T09:04:32.344Z,8.80
2023-12-22T09:05:32.401Z,6.80
2023-12-22T09:06:32.280Z,6.10
2023-12-22T09:07:32.283Z,9.00
2023-12-22T09:08:32.250Z,5.00
2023-12-22T09:09:32.233Z,9.40
2023-12-22T09:10:32.259Z,6.00
2023-12-22T09:11:32.230Z,5.60
2023-12-22T09:12:32.207Z,7.30
2023-12-22T09:13:32.232Z,7.90
2023-12-22T09:14:32.223Z,6.90
2023-12-22T09:15:32.188Z,9.70
2023-12-22T09:16:32.180Z,7.90
2023-12-22T09:17:32.227Z,7.00
2023-12-22T09:18:32.331Z,9.90
2023-12-22T09:19:32.224Z,7.50
2023-12-22T09:20:32.137Z,9.90
2023-12-22T09:21:32.120Z,6.00
2023-12-22T09:22:32.231Z,10.20
2023-12-22T09:23:32.089Z,7.80
2023-12-22T09:24:32.095Z,5.50
2023-12-22T09:25:32.102Z,13.60
2023-12-22T09:26:32.064Z,6.50
2023-12-22T09:27:32.171Z,15.20
2023-12-22T09:28:32.213Z,8.10
2023-12-22T09:29:32.061Z,10.20
2023-12-22T09:30:32.041Z,12.00
2023-12-22T09:31:32.095Z,7.20
2023-12-22T09:32:32.551Z,13.00
2023-12-22T09:33:32.079Z,10.40
2023-12-22T09:34:32.054Z,7.30
2023-12-22T09:35:31.983Z,8.40
2023-12-22T09:36:31.964Z,7.90
2023-12-22T09:37:32.073Z,6.40
2023-12-22T09:38:31.944Z,10.40
2023-12-22T09:39:31.958Z,7.90
2023-12-22T09:40:31.970Z,9.20
2023-12-22T09:41:31.891Z,8.70
2023-12-22T09:42:31.889Z,8.70
2023-12-22T09:43:31.910Z,6.80
2023-12-22T09:44:31.907Z,6.60
2023-12-22T09:45:31.891Z,8.80
2023-12-22T09:46:31.963Z,5.70
2023-12-22T09:48:31.910Z,7.00
2023-12-22T09:49:31.916Z,7.10
2023-12-22T09:50:31.801Z,5.40
2023-12-22T09:51:31.831Z,6.70
2023-12-22T09:52:31.808Z,5.10
2023-12-22T09:53:31.813Z,5.50
2023-12-22T09:54:31.819Z,4.10
2023-12-22T09:55:31.793Z,5.50
2023-12-22T09:56:31.814Z,6.00
2023-12-22T09:57:31.784Z,4.80
2023-12-22T09:58:31.813Z,6.50
2023-12-22T09:59:31.751Z,7.30
2023-12-22T10:00:31.716Z,5.40
2023-12-22T10:01:31.723Z,5.50
2023-12-22T10:02:31.718Z,4.60
2023-12-22T10:03:31.741Z,5.90
2023-12-22T10:04:31.681Z,4.40
2023-12-22T10:05:31.714Z,4.40
2023-12-22T10:06:31.649Z,4.50
2023-12-22T10:07:31.666Z,4.50
2023-12-22T10:08:31.616Z,5.30
2023-12-22T10:09:31.653Z,5.50
2023-12-22T10:10:31.639Z,4.30
2023-12-22T10:11:31.614Z,4.00
2023-12-22T10:12:31.579Z,4.20
2023-12-22T10:13:31.581Z,5.50
2023-12-22T10:14:31.559Z,3.50
2023-12-22T10:15:31.534Z,3.20
2023-12-22T10:16:31.576Z,2.30
2023-12-22T10:17:31.572Z,3.00
2023-12-22T10:18:31.609Z,3.20
2023-12-22T10:19:31.571Z,4.50
2023-12-22T10:20:31.499Z,4.00
2023-12-22T10:21:32.938Z,2.90
2023-12-22T10:22:31.497Z,5.50
2023-12-22T10:23:31.490Z,5.70
2023-12-22T10:24:31.453Z,3.90
2023-12-22T10:25:31.548Z,2.50
2023-12-22T10:26:31.508Z,3.50
2023-12-22T10:27:31.408Z,2.60
2023-12-22T10:28:31.415Z,4.80
2023-12-22T10:29:31.392Z,2.50
2023-12-22T10:30:31.406Z,2.40
2023-12-22T10:31:31.409Z,3.10
2023-12-22T10:32:31.371Z,3.00
2023-12-22T10:33:31.397Z,2.60
2023-12-22T10:34:31.361Z,2.60
2023-12-22T10:35:31.338Z,2.00
2023-12-22T10:36:31.389Z,2.30
2023-12-22T10:37:31.314Z,2.10
2023-12-22T10:38:31.291Z,1.90
2023-12-22T10:39:31.300Z,3.20
2023-12-22T10:40:31.333Z,5.80
2023-12-22T10:41:31.281Z,4.20
2023-12-22T10:42:31.280Z,1.60
2023-12-22T10:43:31.327Z,2.70
2023-12-22T10:44:31.284Z,3.10
2023-12-22T10:45:31.229Z,3.80
2023-12-22T10:46:31.293Z,3.60
2023-12-22T10:47:31.221Z,2.70
2023-12-22T10:48:31.320Z,2.40
2023-12-22T10:49:31.282Z,3.10
2023-12-22T10:50:31.160Z,2.00
2023-12-22T10:51:31.154Z,1.50
2023-12-22T10:52:31.227Z,2.80
2023-12-22T10:53:31.170Z,2.20
2023-12-22T10:54:31.166Z,2.80
2023-12-22T10:55:31.160Z,4.30
2023-12-22T10:58:42.132Z,3.60
2023-12-22T10:59:46.958Z,5.10
2023-12-22T11:00:43.085Z,7.10
2023-12-22T11:01:42.160Z,8.80
2023-12-22T11:02:52.371Z,8.90
2023-12-22T11:05:18.268Z,3.10
2023-12-22T11:06:18.258Z,2.80
2023-12-22T11:07:18.215Z,3.10
2023-12-22T11:08:19.050Z,4.00
2023-12-22T11:09:19.254Z,2.80
2023-12-22T11:10:18.335Z,2.80
2023-12-22T11:11:19.003Z,2.80
2023-12-22T11:12:18.142Z,3.60
2023-12-22T11:13:18.194Z,2.70
2023-12-22T11:14:19.060Z,3.00
2023-12-22T11:15:19.070Z,2.50
2023-12-22T11:16:18.155Z,1.90
2023-12-22T11:17:18.222Z,3.00
2023-12-22T11:18:19.835Z,2.90
2023-12-22T11:19:18.092Z,5.60
2023-12-22T11:20:18.090Z,3.70
2023-12-22T11:21:18.082Z,3.40
2023-12-22T11:22:18.087Z,1.70
2023-12-22T11:23:18.070Z,5.80
2023-12-22T11:24:18.027Z,3.80
2023-12-22T11:25:18.059Z,4.10
2023-12-22T11:26:18.044Z,2.50
2023-12-22T11:27:17.997Z,3.40
2023-12-22T11:28:17.979Z,3.30
2023-12-22T11:29:18.165Z,6.60
2023-12-22T11:30:18.075Z,14.30
2023-12-22T11:31:17.961Z,16.20
2023-12-22T11:32:17.953Z,5.60
2023-12-22T11:33:18.011Z,2.70
2023-12-22T11:34:19.802Z,6.70
2023-12-22T11:35:17.947Z,2.60
2023-12-22T11:36:17.933Z,3.90
2023-12-22T11:37:17.917Z,4.80
2023-12-22T11:38:17.995Z,3.70
2023-12-22T11:39:17.908Z,3.70
2023-12-22T11:40:17.876Z,4.10
2023-12-22T11:41:17.865Z,5.20
2023-12-22T11:42:17.833Z,5.50
2023-12-22T11:43:17.828Z,5.70
2023-12-22T11:44:17.817Z,2.60
2023-12-22T11:45:18.198Z,8.10
2023-12-22T11:46:17.831Z,5.00
2023-12-22T11:47:17.802Z,19.60
2023-12-22T11:48:17.887Z,4.80
2023-12-22T11:49:17.818Z,7.70
2023-12-22T11:50:17.845Z,7.90
2023-12-22T11:51:17.907Z,5.70
2023-12-22T11:52:17.768Z,4.90
2023-12-22T11:53:17.719Z,3.00
2023-12-22T11:54:17.729Z,4.70
2023-12-22T11:55:17.713Z,2.90
2023-12-22T11:56:17.750Z,5.00
2023-12-22T11:57:17.689Z,2.40
2023-12-22T11:58:17.674Z,3.10
2023-12-22T11:59:17.734Z,4.10
2023-12-22T12:00:17.665Z,4.20
2023-12-22T12:01:17.706Z,4.00
2023-12-22T12:02:17.713Z,4.10
2023-12-22T12:03:19.009Z,4.70
2023-12-22T12:04:17.648Z,3.60
2023-12-22T12:05:17.707Z,5.50
2023-12-22T12:06:17.884Z,3.40
2023-12-22T12:07:17.570Z,5.50
2023-12-22T12:08:17.651Z,4.00
2023-12-22T12:09:17.570Z,4.70
2023-12-22T12:10:17.575Z,3.40
2023-12-22T12:11:17.536Z,3.90
2023-12-22T12:12:17.538Z,5.60
2023-12-22T12:13:17.519Z,4.30
2023-12-22T12:14:17.616Z,5.00
2023-12-22T12:15:17.506Z,3.90
2023-12-22T12:16:17.550Z,7.90
2023-12-22T12:17:17.526Z,4.70
2023-12-22T12:18:17.532Z,6.90
2023-12-22T12:19:17.495Z,6.30
2023-12-22T12:20:17.494Z,4.90
2023-12-22T12:21:17.450Z,5.20
2023-12-22T12:22:17.435Z,4.30
2023-12-22T12:23:17.507Z,4.70
2023-12-22T12:24:17.438Z,4.30
2023-12-22T12:25:25.549Z,5.70
2023-12-22T12:26:18.505Z,4.10
2023-12-22T12:27:17.386Z,3.50
2023-12-22T12:28:17.385Z,4.60
2023-12-22T12:29:17.364Z,5.70
2023-12-22T12:30:17.355Z,4.00
2023-12-22T12:31:17.501Z,4.50
2023-12-22T12:32:17.333Z,3.40
2023-12-22T12:33:17.508Z,3.50
2023-12-22T12:34:17.434Z,3.50
2023-12-22T12:35:17.392Z,5.30
2023-12-22T12:36:28.249Z,11.40
2023-12-22T12:37:24.184Z,4.50
2023-12-22T12:38:33.556Z,4.20
2023-12-22T12:39:17.251Z,5.80
2023-12-22T12:40:21.200Z,3.80
2023-12-22T12:41:41.166Z,4.40
2023-12-22T12:42:31.600Z,5.00
2023-12-22T12:43:26.750Z,9.60
2023-12-22T12:44:17.230Z,11.60
2023-12-22T12:45:18.106Z,5.90
2023-12-22T12:47:24.378Z,8.50
2023-12-22T12:48:17.359Z,4.80
2023-12-22T12:49:23.757Z,3.90
2023-12-22T12:50:30.661Z,4.00
2023-12-22T12:51:22.062Z,5.50
2023-12-22T12:52:20.032Z,6.40
2023-12-22T12:53:17.117Z,2.70
2023-12-22T12:54:17.103Z,2.40
2023-12-22T12:55:17.318Z,2.90
2023-12-22T12:56:17.128Z,2.20
2023-12-22T12:57:17.268Z,3.80
2023-12-22T12:58:17.745Z,3.90
2023-12-22T13:00:56.478Z,11.20
2023-12-22T13:01:56.583Z,6.00
2023-12-22T13:02:59.548Z,7.60
2023-12-22T13:03:58.671Z,4.60
2023-12-22T13:06:55.676Z,60.60
2023-12-22T13:07:57.517Z,21.10
2023-12-22T13:09:04.267Z,25.30
2023-12-22T13:09:55.099Z,23.40
2023-12-22T13:10:54.973Z,19.80
2023-12-22T13:11:58.269Z,13.40
2023-12-22T13:16:00.416Z,5.00
2023-12-22T13:17:00.524Z,3.60
2023-12-22T13:18:00.609Z,7.50
2023-12-22T13:19:00.472Z,3.20
2023-12-22T13:24:20.030Z,6.30
2023-12-22T13:25:19.847Z,5.10
2023-12-22T13:26:18.404Z,5.30
2023-12-22T13:27:18.400Z,3.10
2023-12-22T13:28:18.398Z,5.10
2023-12-22T13:29:18.553Z,2.70
2023-12-22T13:30:18.384Z,4.10
2023-12-22T13:31:18.361Z,4.00
2023-12-22T13:32:18.426Z,3.30
2023-12-22T13:33:18.433Z,2.70
2023-12-22T13:34:18.729Z,2.30
2023-12-22T13:35:18.329Z,2.30